KRBL/RBL METAR and TAF weather

Enter ICAO airport designator
Station Type Date Time Source
KRBL METAR 2022/01/26 19:54 UTC NOAA

KRBL 261954Z AUTO 36006KT 10SM CLR 15/M03 A3019 RMK AO2 SLP222 T01501028


Station Type Date Time Source
KRBL Decoded METAR 2022/01/26 19:54 UTC NOAA

RED BLUFF MUNICIPAL AIRPORT, CA, United States (KRBL) 40-09N 122-15W 104M
Jan 26, 2022 - 02:54 PM EST / 2022.01.26 1954 UTC
Wind: from the N (360 degrees) at 7 MPH (6 KT):0
Visibility: 10 mile(s):0
Sky conditions: clear
Temperature: 59.0 F (15.0 C)
Dew Point: 27.0 F (-2.8 C)
Relative Humidity: 29%
Pressure (altimeter): 30.19 in. Hg (1022 hPa)
ob: KRBL 261954Z AUTO 36006KT 10SM CLR 15/M03 A3019 RMK AO2 SLP222 T01501028
cycle: 20

Station Type Date Time Source
KRBL TAF 2022/01/26 18:22 UTC NOAA

TAF KRBL 261720Z 2618/2718 34006KT P6SM SKC

Example: see airport list